createdAt,value
2018-10-11T00:00:15.822Z,20.50
2018-10-11T00:02:44.038Z,22.23
2018-10-11T00:05:12.257Z,21.40
2018-10-11T00:07:40.533Z,20.33
2018-10-11T00:10:08.782Z,22.67
2018-10-11T00:12:37.312Z,20.67
2018-10-11T00:15:05.574Z,21.67
2018-10-11T00:17:33.917Z,23.62
2018-10-11T00:20:02.296Z,22.30
2018-10-11T00:22:30.463Z,20.90
2018-10-11T00:24:59.656Z,20.46
2018-10-11T00:27:28.171Z,21.20
2018-10-11T00:29:56.513Z,21.43
2018-10-11T00:32:24.723Z,21.07
2018-10-11T00:34:53.035Z,20.20
2018-10-11T00:37:21.512Z,17.00
2018-10-11T00:39:49.805Z,19.07
2018-10-11T00:47:12.486Z,20.97
2018-10-11T00:49:43.568Z,19.85
2018-10-11T00:52:15.100Z,21.03
2018-10-11T00:54:43.337Z,20.72
2018-10-11T00:57:11.590Z,21.30
2018-10-11T00:59:40.135Z,21.90
2018-10-11T01:02:09.374Z,21.92
2018-10-11T01:04:37.588Z,18.87
2018-10-11T01:07:09.361Z,19.20
2018-10-11T01:09:37.644Z,18.87
2018-10-11T01:12:05.872Z,17.33
2018-10-11T01:14:34.188Z,19.40
2018-10-11T01:17:02.489Z,17.05
2018-10-11T01:19:30.745Z,18.90
2018-10-11T01:21:59.012Z,19.35
2018-10-11T01:24:35.482Z,16.90
2018-10-11T01:27:03.751Z,21.40
2018-10-11T01:29:32.476Z,20.13
2018-10-11T01:32:00.690Z,17.67
2018-10-11T01:39:27.596Z,19.45
2018-10-11T01:41:55.811Z,15.85
2018-10-11T01:49:17.208Z,13.08
2018-10-11T01:51:45.520Z,13.93
2018-10-11T01:54:13.999Z,12.90
2018-10-11T01:56:42.277Z,14.95
2018-10-11T01:59:10.560Z,14.60
2018-10-11T02:01:38.876Z,18.52
2018-10-11T02:04:07.599Z,17.47
2018-10-11T02:06:35.865Z,18.12
2018-10-11T02:09:04.495Z,19.02
2018-10-11T02:11:33.805Z,18.05
2018-10-11T02:14:02.063Z,17.40
2018-10-11T02:16:30.314Z,17.45
2018-10-11T02:18:58.566Z,19.67
2018-10-11T02:21:26.831Z,19.37
2018-10-11T02:23:59.836Z,18.87
2018-10-11T02:26:28.101Z,19.57
2018-10-11T02:28:56.444Z,17.45
2018-10-11T02:31:24.931Z,17.97
2018-10-11T02:33:53.622Z,17.85
2018-10-11T02:36:21.940Z,17.60
2018-10-11T02:38:50.173Z,18.63
2018-10-11T02:41:18.556Z,16.82
2018-10-11T02:43:46.820Z,17.67
2018-10-11T02:46:15.056Z,16.30
2018-10-11T02:48:43.298Z,18.80
2018-10-11T02:51:11.495Z,18.60
2018-10-11T02:53:47.057Z,20.93
2018-10-11T02:56:15.289Z,21.10
2018-10-11T02:58:55.385Z,17.95
2018-10-11T03:01:23.676Z,17.73
2018-10-11T03:03:57.197Z,17.57
2018-10-11T03:06:25.524Z,18.73
2018-10-11T03:08:53.756Z,19.90
2018-10-11T03:11:22.078Z,18.27
2018-10-11T03:13:50.674Z,17.30
2018-10-11T03:16:26.870Z,18.70
2018-10-11T03:18:55.155Z,16.95
2018-10-11T03:21:23.436Z,18.42
2018-10-11T03:23:52.532Z,19.70
2018-10-11T03:26:20.775Z,17.27
2018-10-11T03:28:49.007Z,17.90
2018-10-11T03:31:17.357Z,21.63
2018-10-11T03:33:45.589Z,22.73
2018-10-11T03:36:14.297Z,20.45
2018-10-11T03:38:42.532Z,19.83
2018-10-11T03:41:10.808Z,18.30
2018-10-11T03:43:39.052Z,18.83
2018-10-11T03:46:07.480Z,20.70
2018-10-11T03:48:35.730Z,19.25
2018-10-11T03:51:03.999Z,19.53
2018-10-11T03:53:32.280Z,18.98
2018-10-11T03:56:00.623Z,20.17
2018-10-11T03:58:29.328Z,19.37
2018-10-11T04:00:57.624Z,21.53
2018-10-11T04:03:26.043Z,20.00
2018-10-11T04:05:54.304Z,18.15
2018-10-11T04:08:22.518Z,21.40
2018-10-11T04:10:50.910Z,21.77
2018-10-11T04:13:19.130Z,21.40
2018-10-11T04:15:47.359Z,20.90
2018-10-11T04:18:15.560Z,20.47
2018-10-11T04:20:43.768Z,17.60
2018-10-11T04:23:19.420Z,20.40
2018-10-11T04:25:47.903Z,20.30
2018-10-11T04:28:16.117Z,20.25
2018-10-11T04:30:44.275Z,19.60
2018-10-11T04:33:12.756Z,18.25
2018-10-11T04:35:41.077Z,19.17
2018-10-11T04:38:09.332Z,18.83
2018-10-11T04:40:37.568Z,20.20
2018-10-11T04:43:05.920Z,19.37
2018-10-11T04:45:34.112Z,20.73
2018-10-11T04:48:02.417Z,16.30
2018-10-11T04:50:30.676Z,17.67
2018-10-11T04:52:58.864Z,20.63
2018-10-11T04:55:30.854Z,21.70
2018-10-11T04:57:59.100Z,21.05
2018-10-11T05:00:28.077Z,20.10
2018-10-11T05:02:56.388Z,18.55
2018-10-11T05:05:24.815Z,19.10
2018-10-11T05:07:52.973Z,20.70
2018-10-11T05:10:21.237Z,20.10
2018-10-11T05:12:50.367Z,19.85
2018-10-11T05:15:18.843Z,20.00
2018-10-11T05:17:47.102Z,18.63
2018-10-11T05:20:15.531Z,19.50
2018-10-11T05:22:43.768Z,20.43
2018-10-11T05:25:12.500Z,20.65
2018-10-11T05:27:41.080Z,18.87
2018-10-11T05:30:10.036Z,21.02
2018-10-11T05:32:38.664Z,20.40
2018-10-11T05:35:07.152Z,18.50
2018-10-11T05:37:35.349Z,19.07
2018-10-11T05:40:04.421Z,20.05
2018-10-11T05:42:32.656Z,21.23
2018-10-11T05:45:16.492Z,19.73
2018-10-11T05:47:44.760Z,18.50
2018-10-11T05:50:13.466Z,20.43
2018-10-11T05:52:42.885Z,19.30
2018-10-11T05:55:11.451Z,18.97
2018-10-11T05:57:39.815Z,18.70
2018-10-11T06:00:09.192Z,18.07
2018-10-11T06:02:51.356Z,21.23
2018-10-11T06:05:19.573Z,20.57
2018-10-11T06:07:47.848Z,18.93
2018-10-11T06:10:16.072Z,20.10
2018-10-11T06:12:44.360Z,18.80
2018-10-11T06:15:12.913Z,19.57
2018-10-11T06:17:41.699Z,21.20
2018-10-11T06:20:09.904Z,19.37
2018-10-11T06:22:38.791Z,18.70
2018-10-11T06:25:07.063Z,18.73
2018-10-11T06:27:35.312Z,18.50
2018-10-11T06:30:03.732Z,18.37
2018-10-11T06:32:32.014Z,17.97
2018-10-11T06:35:00.269Z,19.67
2018-10-11T06:37:28.802Z,20.30
2018-10-11T06:39:58.371Z,18.85
2018-10-11T06:42:31.266Z,20.72
2018-10-11T06:44:59.418Z,20.65
2018-10-11T06:47:27.863Z,19.62
2018-10-11T06:49:56.156Z,19.30
2018-10-11T06:52:24.344Z,21.87
2018-10-11T06:54:53.488Z,19.92
2018-10-11T06:57:21.716Z,20.08
2018-10-11T06:59:49.949Z,21.87
2018-10-11T07:02:18.451Z,20.60
2018-10-11T07:04:47.190Z,21.77
2018-10-11T07:07:15.501Z,19.23
2018-10-11T07:09:44.152Z,20.55
2018-10-11T07:12:13.276Z,19.92
2018-10-11T07:14:45.923Z,21.60
2018-10-11T07:17:14.354Z,22.27
2018-10-11T07:19:42.707Z,19.43
2018-10-11T07:22:11.008Z,21.63
2018-10-11T07:24:39.237Z,19.50
2018-10-11T07:27:07.509Z,19.12
2018-10-11T07:29:42.768Z,19.70
2018-10-11T07:32:11.029Z,17.97
2018-10-11T07:34:39.282Z,16.93
2018-10-11T07:37:07.450Z,18.73
2018-10-11T07:39:35.643Z,18.20
2018-10-11T07:42:03.960Z,19.05
2018-10-11T07:44:32.156Z,17.30
2018-10-11T07:47:00.499Z,19.23
2018-10-11T07:49:28.921Z,18.27
2018-10-11T07:51:57.164Z,17.87
2018-10-11T07:54:30.521Z,16.50
2018-10-11T07:56:59.559Z,17.32
2018-10-11T07:59:32.078Z,17.20
2018-10-11T08:02:00.333Z,17.77
2018-10-11T08:04:28.644Z,16.20
2018-10-11T08:06:56.985Z,16.10
2018-10-11T08:09:25.128Z,15.40
2018-10-11T08:11:53.542Z,14.83
2018-10-11T08:14:21.680Z,15.13
2018-10-11T08:16:50.215Z,14.17
2018-10-11T08:19:19.469Z,11.30
2018-10-11T08:21:47.784Z,13.17
2018-10-11T08:24:15.958Z,9.97
2018-10-11T08:26:44.239Z,8.83
2018-10-11T08:29:16.914Z,9.88
2018-10-11T08:31:45.160Z,9.13
2018-10-11T08:34:13.321Z,8.53
2018-10-11T08:37:04.172Z,8.80
2018-10-11T08:40:02.962Z,9.65
2018-10-11T08:43:00.684Z,9.50
2018-10-11T08:45:58.725Z,9.13
2018-10-11T08:48:56.471Z,9.30
2018-10-11T08:51:54.143Z,9.00
2018-10-11T08:54:55.189Z,7.75
2018-10-11T08:57:23.477Z,9.20
2018-10-11T09:00:14.401Z,7.70
2018-10-11T09:03:12.296Z,7.40
2018-10-11T09:06:10.739Z,8.33
2018-10-11T09:09:08.412Z,6.75
2018-10-11T09:12:07.128Z,8.20
2018-10-11T09:15:05.473Z,8.70
2018-10-11T09:18:03.304Z,7.93
2018-10-11T09:20:31.564Z,7.73
2018-10-11T09:23:21.784Z,8.15
2018-10-11T09:26:19.488Z,8.70
2018-10-11T09:29:17.244Z,7.20
2018-10-11T09:32:15.164Z,6.70
2018-10-11T09:35:13.459Z,6.62
2018-10-11T09:37:41.660Z,6.95
2018-10-11T09:40:10.287Z,7.37
2018-10-11T09:42:39.085Z,6.60
2018-10-11T09:45:12.125Z,8.60
2018-10-11T09:47:40.308Z,7.17
2018-10-11T09:55:03.185Z,6.60
2018-10-11T09:57:35.615Z,6.12
2018-10-11T10:00:12.096Z,6.70
2018-10-11T10:02:41.008Z,8.35
2018-10-11T10:05:09.186Z,7.33
2018-10-11T10:07:37.392Z,7.75
2018-10-11T10:10:06.077Z,6.92
2018-10-11T10:12:34.308Z,7.13
2018-10-11T10:15:02.677Z,7.10
2018-10-11T10:17:30.788Z,7.80
2018-10-11T10:19:58.999Z,7.37
2018-10-11T10:22:27.275Z,6.40
2018-10-11T10:24:55.499Z,7.03
2018-10-11T10:27:23.764Z,5.30
2018-10-11T10:29:51.950Z,6.20
2018-10-11T10:32:24.911Z,6.30
2018-10-11T10:34:53.109Z,6.73
2018-10-11T10:37:21.381Z,6.07
2018-10-11T10:39:50.281Z,7.30
2018-10-11T10:42:18.528Z,8.03
2018-10-11T10:44:46.775Z,6.80
2018-10-11T10:47:15.081Z,7.70
2018-10-11T10:49:43.358Z,6.23
2018-10-11T10:52:11.581Z,7.77
2018-10-11T10:54:39.796Z,7.13
2018-10-11T10:57:07.997Z,7.53
2018-10-11T10:59:36.232Z,5.77
2018-10-11T11:02:04.795Z,7.75
2018-10-11T11:04:33.002Z,5.90
2018-10-11T11:07:01.214Z,7.58
2018-10-11T11:09:29.330Z,6.80
2018-10-11T11:11:57.565Z,7.80
2018-10-11T11:14:25.900Z,7.80
2018-10-11T11:16:54.300Z,6.62
2018-10-11T11:19:29.214Z,8.07
2018-10-11T11:21:57.403Z,6.10
2018-10-11T11:24:26.186Z,6.53
2018-10-11T11:26:55.224Z,6.92
2018-10-11T11:29:23.434Z,7.27
2018-10-11T11:31:51.661Z,6.92
2018-10-11T11:34:19.901Z,6.50
2018-10-11T11:36:48.112Z,6.20
2018-10-11T11:39:16.349Z,6.40
2018-10-11T11:41:44.675Z,5.87
2018-10-11T11:44:12.907Z,6.33
2018-10-11T11:46:41.162Z,5.80
2018-10-11T11:49:09.452Z,6.50
2018-10-11T11:51:37.735Z,6.80
2018-10-11T11:54:10.360Z,6.10
2018-10-11T11:56:38.599Z,6.37
2018-10-11T11:59:06.861Z,6.37
2018-10-11T12:01:35.064Z,6.63
2018-10-11T12:04:03.353Z,6.45
2018-10-11T12:06:31.843Z,6.60
2018-10-11T12:09:00.122Z,7.40
2018-10-11T12:11:28.294Z,5.57
2018-10-11T12:13:56.528Z,6.33
2018-10-11T12:16:24.733Z,6.77
2018-10-11T12:18:53.856Z,7.17
2018-10-11T12:21:22.049Z,6.97
2018-10-11T12:23:50.286Z,6.17
2018-10-11T12:26:25.685Z,6.45
2018-10-11T12:28:54.025Z,6.78
2018-10-11T12:31:22.285Z,5.13
2018-10-11T12:33:50.668Z,6.80
2018-10-11T12:36:19.715Z,5.70
2018-10-11T12:38:48.029Z,8.03
2018-10-11T12:41:16.093Z,5.80
2018-10-11T12:43:44.281Z,6.47
2018-10-11T12:46:12.491Z,5.10
2018-10-11T12:48:44.391Z,5.65
2018-10-11T12:51:12.596Z,5.67
2018-10-11T12:53:44.331Z,5.17
2018-10-11T12:56:09.586Z,5.67
2018-10-11T12:58:37.804Z,6.87
2018-10-11T13:01:06.076Z,5.50
2018-10-11T13:03:37.432Z,5.93
2018-10-11T13:06:05.717Z,6.27
2018-10-11T13:08:34.556Z,5.65
2018-10-11T13:11:02.788Z,5.90
2018-10-11T13:13:30.969Z,6.53
2018-10-11T13:16:01.399Z,5.42
2018-10-11T13:18:27.585Z,6.10
2018-10-11T13:20:55.756Z,5.60
2018-10-11T13:23:23.963Z,5.33
2018-10-11T13:25:52.215Z,5.97
2018-10-11T13:28:20.411Z,5.53
2018-10-11T13:30:48.620Z,5.57
2018-10-11T13:33:16.825Z,5.60
2018-10-11T13:35:45.030Z,5.20
2018-10-11T13:38:13.361Z,5.43
2018-10-11T13:40:41.972Z,6.10
2018-10-11T13:43:09.692Z,5.23
2018-10-11T13:45:37.950Z,5.42
2018-10-11T13:48:06.388Z,4.80
2018-10-11T13:50:37.636Z,5.40
2018-10-11T13:53:06.253Z,5.60
2018-10-11T13:55:34.399Z,6.10
2018-10-11T13:58:03.367Z,6.83
2018-10-11T14:00:31.657Z,6.07
2018-10-11T14:02:59.843Z,7.37
2018-10-11T14:05:31.299Z,6.70
2018-10-11T14:07:59.754Z,5.97
2018-10-11T14:10:28.163Z,4.47
2018-10-11T14:12:56.313Z,4.97
2018-10-11T14:15:24.780Z,5.17
2018-10-11T14:17:53.354Z,4.30
2018-10-11T14:20:21.575Z,5.03
2018-10-11T14:22:49.786Z,5.42
2018-10-11T14:25:17.985Z,5.23
2018-10-11T14:27:46.243Z,4.60
2018-10-11T14:30:14.473Z,4.87
2018-10-11T14:32:42.661Z,5.60
2018-10-11T14:35:15.431Z,4.87
2018-10-11T14:37:43.700Z,4.77
2018-10-11T14:40:11.906Z,5.47
2018-10-11T14:42:40.239Z,4.77
2018-10-11T14:45:08.481Z,4.95
2018-10-11T14:47:36.820Z,5.33
2018-10-11T14:50:05.218Z,4.53
2018-10-11T14:52:33.399Z,4.80
2018-10-11T14:55:02.511Z,4.82
2018-10-11T14:57:30.912Z,5.22
2018-10-11T14:59:59.116Z,5.70
2018-10-11T15:02:27.339Z,6.40
2018-10-11T15:04:58.701Z,4.63
2018-10-11T15:07:27.528Z,5.03
2018-10-11T15:09:55.745Z,5.13
2018-10-11T15:12:23.908Z,5.15
2018-10-11T15:14:52.453Z,5.63
2018-10-11T15:17:20.735Z,5.10
2018-10-11T15:19:49.025Z,5.67
2018-10-11T15:22:17.311Z,5.10
2018-10-11T15:24:45.541Z,5.83
2018-10-11T15:27:13.848Z,5.60
2018-10-11T15:29:42.153Z,5.40
2018-10-11T15:32:10.492Z,7.85
2018-10-11T15:34:38.723Z,5.42
2018-10-11T15:37:07.245Z,5.50
2018-10-11T15:39:36.239Z,5.15
2018-10-11T15:42:04.518Z,6.13
2018-10-11T15:44:32.692Z,5.97
2018-10-11T15:47:01.092Z,6.03
2018-10-11T15:49:29.292Z,5.70
2018-10-11T15:51:57.488Z,6.30
2018-10-11T15:54:25.688Z,7.37
2018-10-11T15:56:54.224Z,6.10
2018-10-11T15:59:22.433Z,6.10
2018-10-11T16:01:50.746Z,7.28
2018-10-11T16:04:18.968Z,7.10
2018-10-11T16:06:47.169Z,6.72
2018-10-11T16:09:15.555Z,6.63
2018-10-11T16:11:43.643Z,6.47
2018-10-11T16:14:11.885Z,7.10
2018-10-11T16:16:40.085Z,7.73
2018-10-11T16:19:08.453Z,7.17
2018-10-11T16:21:36.603Z,7.33
2018-10-11T16:24:04.813Z,8.10
2018-10-11T16:26:33.016Z,7.03
2018-10-11T16:29:01.219Z,8.87
2018-10-11T16:31:29.492Z,7.25
2018-10-11T16:33:57.997Z,7.60
2018-10-11T16:36:26.192Z,7.40
2018-10-11T16:38:54.484Z,7.60
2018-10-11T16:41:23.004Z,8.77
2018-10-11T16:43:51.247Z,8.30
2018-10-11T16:46:19.415Z,7.35
2018-10-11T16:48:47.752Z,8.50
2018-10-11T16:51:15.999Z,8.15
2018-10-11T16:53:44.224Z,9.97
2018-10-11T16:56:12.433Z,8.05
2018-10-11T16:58:40.679Z,8.05
2018-10-11T17:01:08.920Z,9.60
2018-10-11T17:03:37.129Z,8.90
2018-10-11T17:06:05.397Z,8.90
2018-10-11T17:08:33.666Z,9.10
2018-10-11T17:11:02.780Z,9.15
2018-10-11T17:13:30.959Z,10.30
2018-10-11T17:15:59.187Z,8.20
2018-10-11T17:18:27.870Z,8.10
2018-10-11T17:20:56.096Z,9.80
2018-10-11T17:23:28.414Z,10.15
2018-10-11T17:25:56.684Z,11.43
2018-10-11T17:28:24.919Z,10.45
2018-10-11T17:30:53.263Z,10.57
2018-10-11T17:33:21.515Z,11.00
2018-10-11T17:35:49.669Z,10.53
2018-10-11T17:38:22.407Z,9.85
2018-10-11T17:40:50.623Z,9.48
2018-10-11T17:43:18.836Z,10.87
2018-10-11T17:45:47.045Z,10.35
2018-10-11T17:48:15.242Z,9.57
2018-10-11T17:50:43.477Z,9.28
2018-10-11T17:53:15.240Z,9.43
2018-10-11T17:55:43.408Z,9.07
2018-10-11T17:58:11.626Z,10.67
2018-10-11T18:00:39.837Z,11.10
2018-10-11T18:03:08.083Z,8.65
2018-10-11T18:05:36.219Z,8.85
2018-10-11T18:08:04.529Z,8.53
2018-10-11T18:10:32.716Z,10.77
2018-10-11T18:13:00.901Z,10.38
2018-10-11T18:15:29.120Z,10.60
2018-10-11T18:17:57.357Z,10.48
2018-10-11T18:20:25.637Z,9.80
2018-10-11T18:22:54.121Z,8.78
2018-10-11T18:25:22.348Z,9.90
2018-10-11T18:27:50.839Z,9.40
2018-10-11T18:30:19.109Z,10.50
2018-10-11T18:32:47.538Z,9.97
2018-10-11T18:35:38.109Z,10.00
2018-10-11T18:38:36.553Z,9.53
2018-10-11T18:41:35.489Z,9.58
2018-10-11T18:44:33.600Z,10.23
2018-10-11T18:47:31.920Z,9.70
2018-10-11T18:50:29.752Z,12.60
2018-10-11T18:53:27.912Z,11.03
2018-10-11T18:55:56.530Z,10.90
2018-10-11T18:58:47.487Z,11.18
2018-10-11T19:01:45.328Z,12.65
2018-10-11T19:04:43.344Z,10.60
2018-10-11T19:07:42.201Z,12.63
2018-10-11T19:10:41.744Z,13.00
2018-10-11T19:13:39.409Z,12.40
2018-10-11T19:32:57.377Z,11.40
2018-10-11T19:35:26.680Z,10.90
2018-10-11T19:37:55.124Z,11.60
2018-10-11T19:40:23.298Z,12.17
2018-10-11T19:42:51.528Z,12.53
2018-10-11T19:45:21.032Z,12.13
2018-10-11T19:47:49.289Z,12.43
2018-10-11T19:50:17.634Z,13.67
2018-10-11T19:52:45.881Z,12.47
2018-10-11T19:55:17.517Z,12.50
2018-10-11T19:57:45.980Z,13.63
2018-10-11T20:00:14.338Z,11.45
2018-10-11T20:02:43.217Z,11.64
2018-10-11T20:05:11.454Z,11.00
2018-10-11T20:07:39.659Z,10.28
2018-10-11T20:10:07.902Z,11.50
2018-10-11T20:12:36.100Z,12.58
2018-10-11T20:15:04.363Z,12.00
2018-10-11T20:17:33.286Z,11.63
2018-10-11T20:20:02.412Z,12.60
2018-10-11T20:22:30.724Z,14.57
2018-10-11T20:24:59.008Z,12.57
2018-10-11T20:27:27.436Z,12.20
2018-10-11T20:29:55.656Z,12.13
2018-10-11T20:32:23.944Z,14.60
2018-10-11T20:34:52.301Z,11.60
2018-10-11T20:37:20.556Z,12.13
2018-10-11T20:39:48.743Z,12.90
2018-10-11T20:42:17.032Z,12.55
2018-10-11T20:44:45.269Z,15.32
2018-10-11T20:47:13.792Z,11.63
2018-10-11T20:49:42.076Z,11.67
2018-10-11T20:52:10.321Z,12.03
2018-10-11T20:54:38.568Z,13.67
2018-10-11T20:57:07.089Z,12.70
2018-10-11T20:59:35.311Z,12.67
2018-10-11T21:02:03.896Z,12.30
2018-10-11T21:04:32.154Z,12.50
2018-10-11T21:07:01.561Z,11.95
2018-10-11T21:09:29.869Z,13.23
2018-10-11T21:11:58.199Z,12.70
2018-10-11T21:14:26.284Z,12.17
2018-10-11T21:16:54.672Z,13.77
2018-10-11T21:19:22.871Z,12.58
2018-10-11T21:21:51.060Z,13.73
2018-10-11T21:24:19.324Z,12.60
2018-10-11T21:26:47.488Z,13.50
2018-10-11T21:29:15.666Z,12.90
2018-10-11T21:31:43.880Z,13.00
2018-10-11T21:34:12.266Z,14.50
2018-10-11T21:36:40.449Z,13.70
2018-10-11T21:39:10.326Z,12.65
2018-10-11T21:41:38.553Z,12.33
2018-10-11T21:44:09.655Z,12.60
2018-10-11T21:46:37.884Z,13.10
2018-10-11T21:49:06.140Z,12.43
2018-10-11T21:51:34.989Z,12.70
2018-10-11T21:54:03.304Z,12.27
2018-10-11T21:56:31.505Z,11.70
2018-10-11T21:58:59.804Z,12.40
2018-10-11T22:01:28.040Z,12.33
2018-10-11T22:03:56.661Z,12.30
2018-10-11T22:06:24.885Z,13.47
2018-10-11T22:08:53.130Z,13.43
2018-10-11T22:11:21.339Z,15.23
2018-10-11T22:13:52.596Z,14.60
2018-10-11T22:16:21.032Z,12.73
2018-10-11T22:18:49.821Z,11.30
2018-10-11T22:21:18.029Z,13.03
2018-10-11T22:23:46.256Z,14.03
2018-10-11T22:26:14.477Z,14.30
2018-10-11T22:28:42.683Z,14.73
2018-10-11T22:31:17.048Z,14.20
2018-10-11T22:33:45.248Z,14.23
2018-10-11T22:36:13.480Z,13.27
2018-10-11T22:38:42.217Z,12.50
2018-10-11T22:41:11.483Z,13.10
2018-10-11T22:43:48.366Z,12.78
2018-10-11T22:46:16.586Z,13.88
2018-10-11T22:48:44.828Z,14.90
2018-10-11T22:51:13.036Z,13.45
2018-10-11T22:53:41.652Z,13.60
2018-10-11T22:56:09.962Z,13.10
2018-10-11T22:58:38.161Z,13.72
2018-10-11T23:01:06.559Z,14.43
2018-10-11T23:08:32.550Z,13.47
2018-10-11T23:11:00.756Z,15.23
2018-10-11T23:13:29.037Z,11.83
2018-10-11T23:15:57.351Z,12.00
2018-10-11T23:18:25.632Z,12.33
2018-10-11T23:20:53.846Z,12.90
2018-10-11T23:23:22.044Z,12.47
2018-10-11T23:25:50.267Z,14.20
2018-10-11T23:28:18.494Z,16.10
2018-10-11T23:30:46.682Z,12.13
2018-10-11T23:33:14.889Z,13.70
2018-10-11T23:35:43.135Z,12.53
2018-10-11T23:38:11.356Z,13.83
2018-10-11T23:40:39.704Z,12.93
2018-10-11T23:43:08.339Z,12.93
2018-10-11T23:48:11.072Z,13.47
2018-10-11T23:50:40.188Z,14.03
2018-10-11T23:53:08.673Z,12.00
2018-10-11T23:55:36.878Z,12.70
2018-10-11T23:58:05.372Z,14.45
